createdAt,value
2022-09-23T00:02:30.855Z,2.90
2022-09-23T00:07:33.249Z,3.40
2022-09-23T00:12:35.595Z,3.30
2022-09-23T00:17:38.328Z,3.10
2022-09-23T00:22:41.417Z,5.03
2022-09-23T00:27:43.808Z,4.07
2022-09-23T00:32:46.142Z,3.20
2022-09-23T00:37:48.583Z,2.80
2022-09-23T00:42:54.171Z,3.40
2022-09-23T00:48:02.089Z,3.43
2022-09-23T00:53:09.819Z,3.33
2022-09-23T00:58:17.800Z,5.03
2022-09-23T01:03:20.207Z,4.40
2022-09-23T01:08:23.909Z,3.30
2022-09-23T01:13:50.267Z,4.00
2022-09-23T01:19:19.480Z,3.47
2022-09-23T01:25:04.777Z,3.47
2022-09-23T01:30:28.895Z,3.60
2022-09-23T01:35:53.796Z,4.47
2022-09-23T01:41:09.940Z,3.43
2022-09-23T01:46:32.199Z,4.60
2022-09-23T01:51:42.716Z,4.67
2022-09-23T01:57:11.004Z,3.80
2022-09-23T02:02:28.359Z,2.87
2022-09-23T02:07:34.255Z,3.13
2022-09-23T02:12:40.998Z,3.50
2022-09-23T02:18:02.029Z,3.23
2022-09-23T02:23:07.961Z,3.77
2022-09-23T02:28:25.247Z,4.40
2022-09-23T02:34:04.121Z,3.50
2022-09-23T02:39:10.892Z,3.07
2022-09-23T02:44:16.826Z,3.10
2022-09-23T02:49:37.218Z,2.97
2022-09-23T02:54:40.714Z,4.73
2022-09-23T02:59:43.365Z,3.00
2022-09-23T03:05:03.947Z,3.20
2022-09-23T03:10:28.197Z,5.43
2022-09-23T03:15:46.803Z,4.17
2022-09-23T03:21:32.502Z,3.50
2022-09-23T03:26:37.617Z,5.30
2022-09-23T03:31:42.530Z,3.10
2022-09-23T03:37:03.399Z,3.50
2022-09-23T03:42:19.040Z,5.83
2022-09-23T03:47:22.822Z,3.20
2022-09-23T03:52:26.575Z,3.40
2022-09-23T03:57:28.993Z,4.07
2022-09-23T04:02:32.327Z,2.80
2022-09-23T04:07:34.860Z,4.07
2022-09-23T04:12:37.865Z,3.90
2022-09-23T04:17:40.240Z,3.30
2022-09-23T04:22:42.669Z,3.17
2022-09-23T04:27:45.041Z,3.43
2022-09-23T04:32:47.399Z,3.50
2022-09-23T04:37:49.818Z,5.50
2022-09-23T04:42:52.215Z,3.30
2022-09-23T04:47:55.152Z,5.13
2022-09-23T04:52:57.525Z,3.00
2022-09-23T04:57:59.891Z,3.40
2022-09-23T05:03:02.531Z,3.10
2022-09-23T05:08:04.923Z,3.60
2022-09-23T05:13:07.283Z,3.70
2022-09-23T05:18:09.725Z,4.13
2022-09-23T05:23:12.437Z,5.40
2022-09-23T05:28:20.143Z,3.90
2022-09-23T05:33:22.648Z,4.97
2022-09-23T05:38:25.414Z,3.77
2022-09-23T05:43:28.216Z,3.13
2022-09-23T05:48:35.112Z,3.97
2022-09-23T05:53:38.159Z,3.73
2022-09-23T05:58:41.023Z,4.17
2022-09-23T06:03:47.617Z,4.30
2022-09-23T06:08:50.026Z,4.20
2022-09-23T06:13:56.554Z,3.80
2022-09-23T06:19:05.120Z,4.23
2022-09-23T06:24:09.379Z,3.37
2022-09-23T06:29:12.619Z,2.97
2022-09-23T06:34:15.079Z,3.53
2022-09-23T06:39:17.600Z,3.30
2022-09-23T06:44:19.974Z,3.23
2022-09-23T06:49:22.739Z,4.80
2022-09-23T06:54:28.392Z,2.73
2022-09-23T06:59:30.816Z,5.33
2022-09-23T07:04:33.366Z,3.20
2022-09-23T07:09:35.857Z,3.37
2022-09-23T07:14:38.272Z,3.20
2022-09-23T07:19:40.733Z,2.70
2022-09-23T07:24:43.821Z,3.83
2022-09-23T07:29:51.189Z,4.50
2022-09-23T07:34:53.952Z,2.60
2022-09-23T07:39:56.430Z,4.20
2022-09-23T07:44:58.798Z,4.00
2022-09-23T07:50:01.352Z,3.20
2022-09-23T07:55:05.682Z,3.47
2022-09-23T08:00:09.306Z,5.00
2022-09-23T08:05:14.104Z,3.30
2022-09-23T08:10:21.134Z,3.47
2022-09-23T08:15:23.653Z,4.13
2022-09-23T08:20:47.278Z,3.27
2022-09-23T08:25:59.545Z,3.30
2022-09-23T08:31:02.427Z,4.53
2022-09-23T08:36:05.183Z,3.57
2022-09-23T08:41:32.918Z,3.10
2022-09-23T08:46:43.765Z,4.57
2022-09-23T08:51:48.506Z,2.93
2022-09-23T08:56:52.481Z,3.63
2022-09-23T09:02:06.742Z,3.17
2022-09-23T09:07:35.350Z,3.07
2022-09-23T09:12:46.069Z,3.30
2022-09-23T09:18:27.077Z,2.93
2022-09-23T09:23:39.257Z,2.70
2022-09-23T09:28:51.249Z,2.30
2022-09-23T09:34:20.347Z,2.60
2022-09-23T09:39:26.060Z,4.03
2022-09-23T09:44:31.920Z,3.80
2022-09-23T09:49:45.589Z,2.30
2022-09-23T09:54:49.678Z,3.17
2022-09-23T09:59:54.891Z,2.67
2022-09-23T10:05:07.379Z,3.53
2022-09-23T10:10:32.770Z,2.43
2022-09-23T10:15:45.450Z,2.40
2022-09-23T10:20:49.177Z,1.80
2022-09-23T10:26:05.615Z,2.07
2022-09-23T10:31:30.236Z,1.77
2022-09-23T10:36:33.828Z,4.10
2022-09-23T10:42:04.806Z,3.73
2022-09-23T10:47:22.312Z,2.30
2022-09-23T10:52:46.525Z,2.00
2022-09-23T10:58:17.545Z,2.33
2022-09-23T11:03:59.939Z,2.80
2022-09-23T11:09:05.398Z,6.70
2022-09-23T11:14:22.891Z,13.13
2022-09-23T11:19:25.284Z,24.53
2022-09-23T11:24:52.174Z,27.93
2022-09-23T11:30:16.696Z,57.77
2022-09-23T11:35:22.037Z,23.93
2022-09-23T11:40:32.290Z,74.00
2022-09-23T11:45:40.685Z,26.00
2022-09-23T11:50:57.090Z,45.30
2022-09-23T11:56:25.312Z,47.57
2022-09-23T12:01:45.405Z,20.90
2022-09-23T12:06:53.026Z,46.27
2022-09-23T12:12:08.544Z,40.73
2022-09-23T12:17:45.027Z,6.87
2022-09-23T12:22:58.348Z,3.60
2022-09-23T12:28:14.628Z,6.83
2022-09-23T12:33:28.104Z,104.67
2022-09-23T12:38:40.474Z,135.20
2022-09-23T12:43:54.945Z,60.93
2022-09-23T12:49:01.821Z,123.93
2022-09-23T12:54:04.796Z,98.80
2022-09-23T12:59:14.648Z,110.73
2022-09-23T13:04:53.946Z,60.80
2022-09-23T13:10:16.437Z,5.53
2022-09-23T13:15:39.221Z,85.23
2022-09-23T13:20:41.665Z,13.60
2022-09-23T13:25:44.907Z,4.83
2022-09-23T13:30:52.349Z,8.07
2022-09-23T13:36:01.217Z,34.50
2022-09-23T13:41:25.624Z,46.13
2022-09-23T13:46:35.173Z,59.00
2022-09-23T13:51:37.831Z,52.10
2022-09-23T13:56:49.481Z,22.17
2022-09-23T14:02:10.879Z,642.97
2022-09-23T14:07:16.005Z,1093.50
2022-09-23T14:12:22.251Z,263.13
2022-09-23T14:17:24.461Z,53.50
2022-09-23T14:22:29.654Z,31.43
2022-09-23T14:27:36.228Z,29.40
2022-09-23T14:32:40.727Z,16.13
2022-09-23T14:38:06.361Z,25.47
2022-09-23T14:43:22.019Z,18.63
2022-09-23T14:48:34.059Z,4.13
2022-09-23T14:53:40.628Z,21.83
2022-09-23T14:58:58.916Z,12.90
2022-09-23T15:04:10.417Z,16.00
2022-09-23T15:09:23.817Z,3.63
2022-09-23T15:14:38.830Z,16.47
2022-09-23T15:19:42.319Z,18.13
2022-09-23T15:24:45.778Z,19.40
2022-09-23T15:29:48.646Z,14.50
2022-09-23T15:34:51.382Z,12.00
2022-09-23T15:39:53.786Z,11.40
2022-09-23T15:44:58.360Z,9.90
2022-09-23T15:50:00.733Z,10.70
2022-09-23T15:55:08.809Z,6.30
2022-09-23T16:00:13.386Z,11.13
2022-09-23T16:05:18.542Z,23.23
2022-09-23T16:10:22.700Z,7.13
2022-09-23T16:15:25.342Z,5.47
2022-09-23T16:20:30.145Z,19.00
2022-09-23T16:25:35.909Z,111.13
2022-09-23T16:30:38.325Z,241.17
2022-09-23T16:35:40.749Z,200.00
2022-09-23T16:40:47.025Z,5.47
2022-09-23T16:45:49.725Z,4.63
2022-09-23T16:50:54.058Z,6.60
2022-09-23T16:55:59.485Z,5.10
2022-09-23T17:01:20.950Z,4.77
2022-09-23T17:06:25.120Z,6.23
2022-09-23T17:11:33.439Z,3.60
2022-09-23T17:16:36.679Z,5.13
2022-09-23T17:21:39.388Z,4.97
2022-09-23T17:26:41.775Z,4.10
2022-09-23T17:31:44.516Z,3.50
2022-09-23T17:36:47.017Z,8.77
2022-09-23T17:41:49.376Z,7.13
2022-09-23T17:46:52.189Z,5.87
2022-09-23T17:51:55.849Z,5.30
2022-09-23T17:56:59.808Z,8.50
2022-09-23T18:02:02.583Z,5.93
2022-09-23T18:07:05.774Z,10.27
2022-09-23T18:12:08.161Z,6.63
2022-09-23T18:17:10.791Z,6.77
2022-09-23T18:22:13.209Z,6.23
2022-09-23T18:27:15.628Z,4.67
2022-09-23T18:32:18.051Z,8.73
2022-09-23T18:37:20.404Z,5.90
2022-09-23T18:42:23.772Z,4.40
2022-09-23T18:47:44.742Z,5.30
2022-09-23T18:52:48.214Z,6.73
2022-09-23T18:57:51.115Z,32.80
2022-09-23T19:02:53.852Z,6.30
2022-09-23T19:07:56.251Z,7.00
2022-09-23T19:12:58.705Z,8.00
2022-09-23T19:18:01.067Z,6.00
2022-09-23T19:23:03.622Z,19.10
2022-09-23T19:28:08.342Z,8.33
2022-09-23T19:33:11.021Z,5.97
2022-09-23T19:38:14.446Z,4.73
2022-09-23T19:43:16.979Z,4.80
2022-09-23T19:48:19.365Z,5.37
2022-09-23T19:53:24.856Z,4.93
2022-09-23T19:58:31.135Z,5.03
2022-09-23T20:03:34.397Z,6.37
2022-09-23T20:08:37.945Z,7.47
2022-09-23T20:13:42.627Z,5.60
2022-09-23T20:18:46.805Z,7.90
2022-09-23T20:23:49.507Z,5.80
2022-09-23T20:28:52.364Z,11.67
2022-09-23T20:33:58.327Z,6.23
2022-09-23T20:39:05.900Z,5.50
2022-09-23T20:44:14.152Z,5.00
2022-09-23T20:49:17.630Z,5.20
2022-09-23T20:54:20.250Z,8.83
2022-09-23T20:59:22.625Z,7.67
2022-09-23T21:04:25.447Z,5.20
2022-09-23T21:09:30.946Z,7.30
2022-09-23T21:14:33.553Z,27.67
2022-09-23T21:19:38.054Z,18.33
2022-09-23T21:25:16.129Z,5.23
2022-09-23T21:30:04.179Z,7.03
2022-09-23T21:35:06.882Z,7.17
2022-09-23T21:40:28.116Z,6.20
2022-09-23T21:45:31.715Z,5.57
2022-09-23T21:50:40.785Z,5.57
2022-09-23T21:55:43.152Z,6.20
2022-09-23T22:00:46.056Z,5.13
2022-09-23T22:05:48.620Z,4.30
2022-09-23T22:10:51.043Z,4.67
2022-09-23T22:15:53.563Z,5.47
2022-09-23T22:20:59.300Z,4.17
2022-09-23T22:26:03.372Z,4.20
2022-09-23T22:31:26.419Z,4.03
2022-09-23T22:36:28.828Z,4.80
2022-09-23T22:41:31.572Z,4.43
2022-09-23T22:46:34.723Z,4.67
2022-09-23T22:51:39.148Z,3.77
2022-09-23T22:56:41.564Z,3.50
2022-09-23T23:01:43.957Z,3.60
2022-09-23T23:06:46.836Z,5.13
2022-09-23T23:11:49.396Z,4.60
2022-09-23T23:16:52.262Z,5.57
2022-09-23T23:21:54.665Z,4.77
2022-09-23T23:26:57.081Z,4.27
2022-09-23T23:31:59.601Z,3.83
2022-09-23T23:37:01.974Z,5.87
2022-09-23T23:42:04.963Z,4.30
2022-09-23T23:47:07.358Z,5.67
2022-09-23T23:52:09.899Z,5.90
2022-09-23T23:57:12.354Z,5.57
